sensor_id;sensor_type;location;lat;lon;timestamp;P1;durP1;ratioP1;P2;durP2;ratioP2
70253;SDS011;57649;42.968;1.608;2023-04-08T00:00:31;3.90;;;2.53;;
70253;SDS011;57649;42.968;1.608;2023-04-08T00:02:57;4.97;;;2.75;;
70253;SDS011;57649;42.968;1.608;2023-04-08T00:05:22;5.13;;;2.78;;
70253;SDS011;57649;42.968;1.608;2023-04-08T00:07:47;4.15;;;2.90;;
70253;SDS011;57649;42.968;1.608;2023-04-08T00:10:13;5.13;;;2.50;;
70253;SDS011;57649;42.968;1.608;2023-04-08T00:12:38;5.00;;;2.25;;
70253;SDS011;57649;42.968;1.608;2023-04-08T00:15:04;5.20;;;2.80;;
70253;SDS011;57649;42.968;1.608;2023-04-08T00:17:30;5.85;;;2.45;;
70253;SDS011;57649;42.968;1.608;2023-04-08T00:19:55;5.45;;;2.83;;
70253;SDS011;57649;42.968;1.608;2023-04-08T00:22:21;7.55;;;3.05;;
70253;SDS011;57649;42.968;1.608;2023-04-08T00:24:47;3.67;;;2.38;;
70253;SDS011;57649;42.968;1.608;2023-04-08T00:27:12;4.80;;;2.50;;
70253;SDS011;57649;42.968;1.608;2023-04-08T00:29:37;4.72;;;2.80;;
70253;SDS011;57649;42.968;1.608;2023-04-08T00:32:03;3.63;;;2.65;;
70253;SDS011;57649;42.968;1.608;2023-04-08T00:34:28;7.47;;;3.10;;
70253;SDS011;57649;42.968;1.608;2023-04-08T00:36:54;4.68;;;3.20;;
70253;SDS011;57649;42.968;1.608;2023-04-08T00:39:20;5.10;;;3.38;;
70253;SDS011;57649;42.968;1.608;2023-04-08T00:41:45;4.68;;;3.25;;
70253;SDS011;57649;42.968;1.608;2023-04-08T00:44:11;9.32;;;3.33;;
70253;SDS011;57649;42.968;1.608;2023-04-08T00:46:37;4.03;;;2.63;;
70253;SDS011;57649;42.968;1.608;2023-04-08T00:49:04;3.75;;;2.45;;
70253;SDS011;57649;42.968;1.608;2023-04-08T00:51:31;3.55;;;2.65;;
70253;SDS011;57649;42.968;1.608;2023-04-08T00:53:57;4.68;;;2.40;;
70253;SDS011;57649;42.968;1.608;2023-04-08T00:56:24;4.93;;;2.60;;
70253;SDS011;57649;42.968;1.608;2023-04-08T00:58:51;4.80;;;2.65;;
70253;SDS011;57649;42.968;1.608;2023-04-08T01:01:28;4.20;;;2.60;;
70253;SDS011;57649;42.968;1.608;2023-04-08T01:04:01;6.13;;;2.80;;
70253;SDS011;57649;42.968;1.608;2023-04-08T01:06:50;6.30;;;2.70;;
70253;SDS011;57649;42.968;1.608;2023-04-08T01:11:51;3.40;;;2.17;;
70253;SDS011;57649;42.968;1.608;2023-04-08T01:14:22;3.55;;;2.55;;
70253;SDS011;57649;42.968;1.608;2023-04-08T01:16:50;3.42;;;2.30;;
70253;SDS011;57649;42.968;1.608;2023-04-08T01:19:27;3.47;;;2.45;;
70253;SDS011;57649;42.968;1.608;2023-04-08T01:24:43;3.30;;;2.30;;
70253;SDS011;57649;42.968;1.608;2023-04-08T01:27:11;3.40;;;2.53;;
70253;SDS011;57649;42.968;1.608;2023-04-08T01:29:38;5.50;;;2.33;;
70253;SDS011;57649;42.968;1.608;2023-04-08T01:32:06;5.78;;;2.22;;
70253;SDS011;57649;42.968;1.608;2023-04-08T01:34:33;3.05;;;2.30;;
70253;SDS011;57649;42.968;1.608;2023-04-08T01:36:59;4.80;;;2.45;;
70253;SDS011;57649;42.968;1.608;2023-04-08T01:39:26;5.75;;;2.38;;
70253;SDS011;57649;42.968;1.608;2023-04-08T01:41:54;2.70;;;2.00;;
70253;SDS011;57649;42.968;1.608;2023-04-08T01:44:21;5.03;;;2.70;;
70253;SDS011;57649;42.968;1.608;2023-04-08T01:46:48;4.20;;;2.58;;
70253;SDS011;57649;42.968;1.608;2023-04-08T01:49:15;3.67;;;2.42;;
70253;SDS011;57649;42.968;1.608;2023-04-08T01:51:41;3.65;;;2.50;;
70253;SDS011;57649;42.968;1.608;2023-04-08T01:54:08;6.00;;;2.85;;
70253;SDS011;57649;42.968;1.608;2023-04-08T01:56:35;6.28;;;2.72;;
70253;SDS011;57649;42.968;1.608;2023-04-08T01:59:03;7.32;;;2.97;;
70253;SDS011;57649;42.968;1.608;2023-04-08T02:01:33;5.00;;;2.83;;
70253;SDS011;57649;42.968;1.608;2023-04-08T02:03:59;6.43;;;4.53;;
70253;SDS011;57649;42.968;1.608;2023-04-08T02:06:27;17.95;;;12.25;;
70253;SDS011;57649;42.968;1.608;2023-04-08T02:08:53;13.15;;;8.93;;
70253;SDS011;57649;42.968;1.608;2023-04-08T02:11:20;6.22;;;5.00;;
70253;SDS011;57649;42.968;1.608;2023-04-08T02:13:45;6.10;;;2.70;;
70253;SDS011;57649;42.968;1.608;2023-04-08T02:16:18;4.78;;;2.40;;
70253;SDS011;57649;42.968;1.608;2023-04-08T02:18:54;7.20;;;2.35;;
70253;SDS011;57649;42.968;1.608;2023-04-08T02:21:23;7.88;;;2.60;;
70253;SDS011;57649;42.968;1.608;2023-04-08T02:23:57;3.42;;;2.15;;
70253;SDS011;57649;42.968;1.608;2023-04-08T02:26:24;5.28;;;2.03;;
70253;SDS011;57649;42.968;1.608;2023-04-08T02:28:51;4.38;;;2.60;;
70253;SDS011;57649;42.968;1.608;2023-04-08T02:31:18;6.43;;;3.38;;
70253;SDS011;57649;42.968;1.608;2023-04-08T02:33:45;3.67;;;2.50;;
70253;SDS011;57649;42.968;1.608;2023-04-08T02:36:11;4.70;;;3.17;;
70253;SDS011;57649;42.968;1.608;2023-04-08T02:38:37;3.58;;;2.15;;
70253;SDS011;57649;42.968;1.608;2023-04-08T02:41:02;5.25;;;2.10;;
70253;SDS011;57649;42.968;1.608;2023-04-08T02:43:28;4.75;;;2.30;;
70253;SDS011;57649;42.968;1.608;2023-04-08T02:45:56;2.95;;;1.92;;
70253;SDS011;57649;42.968;1.608;2023-04-08T02:48:24;3.35;;;1.90;;
70253;SDS011;57649;42.968;1.608;2023-04-08T02:50:50;8.48;;;2.10;;
70253;SDS011;57649;42.968;1.608;2023-04-08T02:53:15;3.90;;;2.05;;
70253;SDS011;57649;42.968;1.608;2023-04-08T02:55:41;5.13;;;2.15;;
70253;SDS011;57649;42.968;1.608;2023-04-08T02:58:06;2.97;;;2.00;;
70253;SDS011;57649;42.968;1.608;2023-04-08T03:00:31;3.13;;;2.15;;
70253;SDS011;57649;42.968;1.608;2023-04-08T03:02:57;3.78;;;1.95;;
70253;SDS011;57649;42.968;1.608;2023-04-08T03:05:22;4.40;;;2.40;;
70253;SDS011;57649;42.968;1.608;2023-04-08T03:07:50;4.80;;;2.15;;
70253;SDS011;57649;42.968;1.608;2023-04-08T03:10:16;5.05;;;1.98;;
70253;SDS011;57649;42.968;1.608;2023-04-08T03:12:41;5.05;;;2.35;;
70253;SDS011;57649;42.968;1.608;2023-04-08T03:15:07;3.75;;;1.92;;
70253;SDS011;57649;42.968;1.608;2023-04-08T03:17:32;4.20;;;2.53;;
70253;SDS011;57649;42.968;1.608;2023-04-08T03:19:58;9.93;;;2.30;;
70253;SDS011;57649;42.968;1.608;2023-04-08T03:22:25;2.65;;;1.95;;
70253;SDS011;57649;42.968;1.608;2023-04-08T03:24:50;3.05;;;2.03;;
70253;SDS011;57649;42.968;1.608;2023-04-08T03:27:16;3.72;;;2.08;;
70253;SDS011;57649;42.968;1.608;2023-04-08T03:29:41;3.65;;;2.00;;
70253;SDS011;57649;42.968;1.608;2023-04-08T03:32:06;3.63;;;2.15;;
70253;SDS011;57649;42.968;1.608;2023-04-08T03:34:35;3.80;;;2.38;;
70253;SDS011;57649;42.968;1.608;2023-04-08T03:37:00;5.38;;;2.30;;
70253;SDS011;57649;42.968;1.608;2023-04-08T03:39:26;4.05;;;2.20;;
70253;SDS011;57649;42.968;1.608;2023-04-08T03:41:51;3.30;;;2.30;;
70253;SDS011;57649;42.968;1.608;2023-04-08T03:44:17;3.42;;;2.10;;
70253;SDS011;57649;42.968;1.608;2023-04-08T03:46:42;4.85;;;2.47;;
70253;SDS011;57649;42.968;1.608;2023-04-08T03:49:08;4.70;;;1.90;;
70253;SDS011;57649;42.968;1.608;2023-04-08T03:51:33;4.78;;;2.03;;
70253;SDS011;57649;42.968;1.608;2023-04-08T03:53:58;3.80;;;2.00;;
70253;SDS011;57649;42.968;1.608;2023-04-08T03:56:24;3.83;;;2.30;;
70253;SDS011;57649;42.968;1.608;2023-04-08T03:58:49;3.13;;;2.00;;
70253;SDS011;57649;42.968;1.608;2023-04-08T04:01:15;3.40;;;2.10;;
70253;SDS011;57649;42.968;1.608;2023-04-08T04:03:40;7.32;;;2.20;;
70253;SDS011;57649;42.968;1.608;2023-04-08T04:06:06;4.85;;;1.98;;
70253;SDS011;57649;42.968;1.608;2023-04-08T04:08:31;3.30;;;2.17;;
70253;SDS011;57649;42.968;1.608;2023-04-08T04:10:57;3.50;;;2.17;;
70253;SDS011;57649;42.968;1.608;2023-04-08T04:13:23;2.75;;;1.90;;
70253;SDS011;57649;42.968;1.608;2023-04-08T04:15:49;3.90;;;2.35;;
70253;SDS011;57649;42.968;1.608;2023-04-08T04:18:14;3.70;;;2.00;;
70253;SDS011;57649;42.968;1.608;2023-04-08T04:20:43;3.58;;;2.22;;
70253;SDS011;57649;42.968;1.608;2023-04-08T04:23:08;2.70;;;1.60;;
70253;SDS011;57649;42.968;1.608;2023-04-08T04:25:34;5.45;;;1.90;;
70253;SDS011;57649;42.968;1.608;2023-04-08T04:28:00;7.22;;;2.63;;
70253;SDS011;57649;42.968;1.608;2023-04-08T04:30:26;3.00;;;2.00;;
70253;SDS011;57649;42.968;1.608;2023-04-08T04:32:52;6.30;;;2.58;;
70253;SDS011;57649;42.968;1.608;2023-04-08T04:35:17;9.52;;;7.63;;
70253;SDS011;57649;42.968;1.608;2023-04-08T04:37:43;7.90;;;5.70;;
70253;SDS011;57649;42.968;1.608;2023-04-08T04:40:08;12.90;;;10.13;;
70253;SDS011;57649;42.968;1.608;2023-04-08T04:42:34;4.50;;;3.22;;
70253;SDS011;57649;42.968;1.608;2023-04-08T04:44:59;3.90;;;2.53;;
70253;SDS011;57649;42.968;1.608;2023-04-08T04:47:25;3.80;;;2.28;;
70253;SDS011;57649;42.968;1.608;2023-04-08T04:49:50;6.07;;;2.90;;
70253;SDS011;57649;42.968;1.608;2023-04-08T04:52:16;4.85;;;3.00;;
70253;SDS011;57649;42.968;1.608;2023-04-08T04:54:41;4.35;;;2.90;;
70253;SDS011;57649;42.968;1.608;2023-04-08T04:57:07;5.88;;;2.47;;
70253;SDS011;57649;42.968;1.608;2023-04-08T04:59:32;3.65;;;2.08;;
70253;SDS011;57649;42.968;1.608;2023-04-08T05:01:58;3.47;;;2.28;;
70253;SDS011;57649;42.968;1.608;2023-04-08T05:04:24;6.43;;;2.30;;
70253;SDS011;57649;42.968;1.608;2023-04-08T05:06:49;2.92;;;2.00;;
70253;SDS011;57649;42.968;1.608;2023-04-08T05:09:15;6.78;;;2.50;;
70253;SDS011;57649;42.968;1.608;2023-04-08T05:11:40;5.03;;;2.50;;
70253;SDS011;57649;42.968;1.608;2023-04-08T05:14:06;4.07;;;2.40;;
70253;SDS011;57649;42.968;1.608;2023-04-08T05:16:32;5.93;;;2.17;;
70253;SDS011;57649;42.968;1.608;2023-04-08T05:18:57;5.35;;;2.45;;
70253;SDS011;57649;42.968;1.608;2023-04-08T05:21:23;3.72;;;2.20;;
70253;SDS011;57649;42.968;1.608;2023-04-08T05:23:48;4.15;;;2.22;;
70253;SDS011;57649;42.968;1.608;2023-04-08T05:26:17;4.05;;;1.90;;
70253;SDS011;57649;42.968;1.608;2023-04-08T05:28:48;2.75;;;2.25;;
70253;SDS011;57649;42.968;1.608;2023-04-08T05:31:15;7.40;;;2.30;;
70253;SDS011;57649;42.968;1.608;2023-04-08T05:33:41;3.42;;;2.00;;
70253;SDS011;57649;42.968;1.608;2023-04-08T05:36:07;6.78;;;2.35;;
70253;SDS011;57649;42.968;1.608;2023-04-08T05:38:32;3.80;;;2.25;;
70253;SDS011;57649;42.968;1.608;2023-04-08T05:40:58;2.78;;;1.75;;
70253;SDS011;57649;42.968;1.608;2023-04-08T05:43:23;8.35;;;2.10;;
70253;SDS011;57649;42.968;1.608;2023-04-08T05:45:49;5.60;;;2.58;;
70253;SDS011;57649;42.968;1.608;2023-04-08T05:48:15;4.88;;;2.50;;
70253;SDS011;57649;42.968;1.608;2023-04-08T05:50:40;3.92;;;2.03;;
70253;SDS011;57649;42.968;1.608;2023-04-08T05:53:06;4.18;;;2.28;;
70253;SDS011;57649;42.968;1.608;2023-04-08T05:55:31;3.40;;;2.28;;
70253;SDS011;57649;42.968;1.608;2023-04-08T05:57:56;3.17;;;2.33;;
70253;SDS011;57649;42.968;1.608;2023-04-08T06:00:22;2.85;;;2.22;;
70253;SDS011;57649;42.968;1.608;2023-04-08T06:02:47;4.72;;;2.30;;
70253;SDS011;57649;42.968;1.608;2023-04-08T06:05:13;6.35;;;3.10;;
70253;SDS011;57649;42.968;1.608;2023-04-08T06:07:38;4.05;;;2.13;;
70253;SDS011;57649;42.968;1.608;2023-04-08T06:10:03;4.07;;;2.28;;
70253;SDS011;57649;42.968;1.608;2023-04-08T06:12:33;3.20;;;2.22;;
70253;SDS011;57649;42.968;1.608;2023-04-08T06:14:59;9.40;;;2.38;;
70253;SDS011;57649;42.968;1.608;2023-04-08T06:17:25;4.75;;;2.38;;
70253;SDS011;57649;42.968;1.608;2023-04-08T06:19:51;4.30;;;2.15;;
70253;SDS011;57649;42.968;1.608;2023-04-08T06:22:17;5.25;;;2.33;;
70253;SDS011;57649;42.968;1.608;2023-04-08T06:24:42;5.00;;;2.70;;
70253;SDS011;57649;42.968;1.608;2023-04-08T06:27:07;5.70;;;2.22;;
70253;SDS011;57649;42.968;1.608;2023-04-08T06:29:33;5.20;;;2.50;;
70253;SDS011;57649;42.968;1.608;2023-04-08T06:31:58;5.72;;;2.70;;
70253;SDS011;57649;42.968;1.608;2023-04-08T06:34:24;4.80;;;2.53;;
70253;SDS011;57649;42.968;1.608;2023-04-08T06:36:49;5.82;;;3.10;;
70253;SDS011;57649;42.968;1.608;2023-04-08T06:39:15;5.25;;;2.55;;
70253;SDS011;57649;42.968;1.608;2023-04-08T06:41:41;5.75;;;2.10;;
70253;SDS011;57649;42.968;1.608;2023-04-08T06:44:06;3.30;;;2.15;;
70253;SDS011;57649;42.968;1.608;2023-04-08T06:46:32;4.45;;;2.40;;
70253;SDS011;57649;42.968;1.608;2023-04-08T06:48:57;5.43;;;2.75;;
70253;SDS011;57649;42.968;1.608;2023-04-08T06:51:22;10.82;;;3.80;;
70253;SDS011;57649;42.968;1.608;2023-04-08T06:53:48;5.00;;;2.88;;
70253;SDS011;57649;42.968;1.608;2023-04-08T06:56:13;4.30;;;2.65;;
70253;SDS011;57649;42.968;1.608;2023-04-08T06:58:39;6.10;;;2.90;;
70253;SDS011;57649;42.968;1.608;2023-04-08T07:01:04;6.15;;;2.75;;
70253;SDS011;57649;42.968;1.608;2023-04-08T07:03:30;4.72;;;3.13;;
70253;SDS011;57649;42.968;1.608;2023-04-08T07:05:55;4.05;;;3.10;;
70253;SDS011;57649;42.968;1.608;2023-04-08T07:08:20;9.05;;;3.38;;
70253;SDS011;57649;42.968;1.608;2023-04-08T07:10:46;5.40;;;2.97;;
70253;SDS011;57649;42.968;1.608;2023-04-08T07:13:11;5.25;;;3.05;;
70253;SDS011;57649;42.968;1.608;2023-04-08T07:15:37;5.50;;;3.80;;
70253;SDS011;57649;42.968;1.608;2023-04-08T07:18:02;6.07;;;3.30;;
70253;SDS011;57649;42.968;1.608;2023-04-08T07:20:28;4.88;;;3.55;;
70253;SDS011;57649;42.968;1.608;2023-04-08T07:22:54;8.73;;;3.40;;
70253;SDS011;57649;42.968;1.608;2023-04-08T07:25:19;13.23;;;4.07;;
70253;SDS011;57649;42.968;1.608;2023-04-08T07:27:45;10.55;;;3.60;;
70253;SDS011;57649;42.968;1.608;2023-04-08T07:30:10;8.07;;;3.00;;
70253;SDS011;57649;42.968;1.608;2023-04-08T07:32:36;4.05;;;2.80;;
70253;SDS011;57649;42.968;1.608;2023-04-08T07:35:02;8.98;;;3.40;;
70253;SDS011;57649;42.968;1.608;2023-04-08T07:37:27;8.13;;;3.45;;
70253;SDS011;57649;42.968;1.608;2023-04-08T07:39:53;6.80;;;3.25;;
70253;SDS011;57649;42.968;1.608;2023-04-08T07:42:19;5.63;;;3.47;;
70253;SDS011;57649;42.968;1.608;2023-04-08T07:44:44;4.90;;;3.17;;
70253;SDS011;57649;42.968;1.608;2023-04-08T07:47:10;10.18;;;3.38;;
70253;SDS011;57649;42.968;1.608;2023-04-08T07:49:36;8.82;;;3.33;;
70253;SDS011;57649;42.968;1.608;2023-04-08T07:52:03;5.53;;;3.10;;
70253;SDS011;57649;42.968;1.608;2023-04-08T07:54:32;7.03;;;3.15;;
70253;SDS011;57649;42.968;1.608;2023-04-08T07:57:00;5.20;;;2.67;;
70253;SDS011;57649;42.968;1.608;2023-04-08T07:59:26;5.63;;;2.60;;
70253;SDS011;57649;42.968;1.608;2023-04-08T08:01:52;6.53;;;4.30;;
70253;SDS011;57649;42.968;1.608;2023-04-08T08:04:17;4.22;;;2.70;;
70253;SDS011;57649;42.968;1.608;2023-04-08T08:06:43;10.82;;;2.67;;
70253;SDS011;57649;42.968;1.608;2023-04-08T08:09:08;4.13;;;2.95;;
70253;SDS011;57649;42.968;1.608;2023-04-08T08:11:33;4.88;;;2.50;;
70253;SDS011;57649;42.968;1.608;2023-04-08T08:13:59;4.55;;;2.60;;
70253;SDS011;57649;42.968;1.608;2023-04-08T08:16:28;4.18;;;2.40;;
70253;SDS011;57649;42.968;1.608;2023-04-08T08:18:53;4.40;;;2.60;;
70253;SDS011;57649;42.968;1.608;2023-04-08T08:21:19;5.28;;;2.50;;
70253;SDS011;57649;42.968;1.608;2023-04-08T08:23:44;4.35;;;3.03;;
70253;SDS011;57649;42.968;1.608;2023-04-08T08:26:09;5.40;;;2.50;;
70253;SDS011;57649;42.968;1.608;2023-04-08T08:28:35;6.38;;;2.50;;
70253;SDS011;57649;42.968;1.608;2023-04-08T08:31:00;4.53;;;2.90;;
70253;SDS011;57649;42.968;1.608;2023-04-08T08:33:27;3.60;;;2.20;;
70253;SDS011;57649;42.968;1.608;2023-04-08T08:35:52;6.90;;;2.30;;
70253;SDS011;57649;42.968;1.608;2023-04-08T08:38:18;5.95;;;2.40;;
70253;SDS011;57649;42.968;1.608;2023-04-08T08:40:43;3.40;;;1.85;;
70253;SDS011;57649;42.968;1.608;2023-04-08T08:43:09;4.53;;;2.00;;
70253;SDS011;57649;42.968;1.608;2023-04-08T08:45:39;6.70;;;2.08;;
70253;SDS011;57649;42.968;1.608;2023-04-08T08:48:07;4.55;;;1.75;;
70253;SDS011;57649;42.968;1.608;2023-04-08T08:50:33;3.33;;;2.22;;
70253;SDS011;57649;42.968;1.608;2023-04-08T08:52:59;6.00;;;1.70;;
70253;SDS011;57649;42.968;1.608;2023-04-08T08:55:25;4.32;;;2.00;;
70253;SDS011;57649;42.968;1.608;2023-04-08T08:57:51;4.90;;;2.00;;
70253;SDS011;57649;42.968;1.608;2023-04-08T09:00:16;2.10;;;1.50;;
70253;SDS011;57649;42.968;1.608;2023-04-08T09:02:42;4.55;;;1.77;;
70253;SDS011;57649;42.968;1.608;2023-04-08T09:05:08;4.07;;;2.10;;
70253;SDS011;57649;42.968;1.608;2023-04-08T09:07:34;3.95;;;1.60;;
70253;SDS011;57649;42.968;1.608;2023-04-08T09:10:00;4.50;;;1.70;;
70253;SDS011;57649;42.968;1.608;2023-04-08T09:12:26;3.65;;;1.42;;
70253;SDS011;57649;42.968;1.608;2023-04-08T09:17:47;3.63;;;1.52;;
70253;SDS011;57649;42.968;1.608;2023-04-08T09:20:12;5.78;;;2.33;;
70253;SDS011;57649;42.968;1.608;2023-04-08T09:22:58;2.75;;;1.33;;
70253;SDS011;57649;42.968;1.608;2023-04-08T09:25:26;4.03;;;1.15;;
70253;SDS011;57649;42.968;1.608;2023-04-08T09:27:56;3.13;;;1.38;;
70253;SDS011;57649;42.968;1.608;2023-04-08T09:30:23;2.47;;;1.60;;
70253;SDS011;57649;42.968;1.608;2023-04-08T09:32:50;4.82;;;1.30;;
70253;SDS011;57649;42.968;1.608;2023-04-08T09:35:18;1.58;;;1.02;;
70253;SDS011;57649;42.968;1.608;2023-04-08T09:37:55;2.08;;;1.25;;
70253;SDS011;57649;42.968;1.608;2023-04-08T09:40:20;3.00;;;1.27;;
70253;SDS011;57649;42.968;1.608;2023-04-08T09:42:48;2.13;;;1.15;;
70253;SDS011;57649;42.968;1.608;2023-04-08T09:45:17;6.20;;;1.10;;
70253;SDS011;57649;42.968;1.608;2023-04-08T09:47:49;3.70;;;1.50;;
70253;SDS011;57649;42.968;1.608;2023-04-08T09:50:23;3.15;;;1.60;;
70253;SDS011;57649;42.968;1.608;2023-04-08T09:53:08;2.30;;;1.35;;
70253;SDS011;57649;42.968;1.608;2023-04-08T09:55:37;2.20;;;1.35;;
70253;SDS011;57649;42.968;1.608;2023-04-08T09:58:10;3.13;;;1.23;;
70253;SDS011;57649;42.968;1.608;2023-04-08T10:00:46;3.17;;;1.25;;
70253;SDS011;57649;42.968;1.608;2023-04-08T10:03:28;6.78;;;1.30;;
70253;SDS011;57649;42.968;1.608;2023-04-08T10:06:00;7.68;;;1.65;;
70253;SDS011;57649;42.968;1.608;2023-04-08T10:08:26;4.32;;;1.77;;
70253;SDS011;57649;42.968;1.608;2023-04-08T10:10:52;2.35;;;1.10;;
70253;SDS011;57649;42.968;1.608;2023-04-08T10:13:19;2.42;;;1.60;;
70253;SDS011;57649;42.968;1.608;2023-04-08T10:15:45;5.28;;;2.92;;
70253;SDS011;57649;42.968;1.608;2023-04-08T10:20:43;4.03;;;1.10;;
70253;SDS011;57649;42.968;1.608;2023-04-08T10:23:12;3.38;;;1.15;;
70253;SDS011;57649;42.968;1.608;2023-04-08T10:25:46;2.00;;;1.00;;
70253;SDS011;57649;42.968;1.608;2023-04-08T10:31:01;2.97;;;1.27;;
70253;SDS011;57649;42.968;1.608;2023-04-08T10:33:31;2.92;;;1.20;;
70253;SDS011;57649;42.968;1.608;2023-04-08T10:35:59;1.73;;;0.90;;
70253;SDS011;57649;42.968;1.608;2023-04-08T10:38:36;2.88;;;1.35;;
70253;SDS011;57649;42.968;1.608;2023-04-08T10:41:02;2.08;;;1.20;;
70253;SDS011;57649;42.968;1.608;2023-04-08T10:43:31;2.40;;;1.20;;
70253;SDS011;57649;42.968;1.608;2023-04-08T10:45:58;2.58;;;0.98;;
70253;SDS011;57649;42.968;1.608;2023-04-08T10:48:24;2.80;;;1.15;;
70253;SDS011;57649;42.968;1.608;2023-04-08T10:53:28;1.70;;;1.02;;
70253;SDS011;57649;42.968;1.608;2023-04-08T10:56:04;2.28;;;1.10;;
70253;SDS011;57649;42.968;1.608;2023-04-08T10:58:32;3.60;;;1.40;;
70253;SDS011;57649;42.968;1.608;2023-04-08T11:01:04;3.78;;;1.20;;
70253;SDS011;57649;42.968;1.608;2023-04-08T11:03:31;3.28;;;1.23;;
70253;SDS011;57649;42.968;1.608;2023-04-08T11:05:58;4.03;;;1.17;;
70253;SDS011;57649;42.968;1.608;2023-04-08T11:08:28;1.98;;;1.10;;
70253;SDS011;57649;42.968;1.608;2023-04-08T11:10:53;3.30;;;1.52;;
70253;SDS011;57649;42.968;1.608;2023-04-08T11:13:19;4.25;;;1.60;;
70253;SDS011;57649;42.968;1.608;2023-04-08T11:15:46;2.58;;;1.25;;
70253;SDS011;57649;42.968;1.608;2023-04-08T11:18:11;2.75;;;1.48;;
70253;SDS011;57649;42.968;1.608;2023-04-08T11:20:37;2.10;;;1.35;;
70253;SDS011;57649;42.968;1.608;2023-04-08T11:23:04;1.48;;;1.10;;
70253;SDS011;57649;42.968;1.608;2023-04-08T11:25:36;3.72;;;1.20;;
70253;SDS011;57649;42.968;1.608;2023-04-08T11:28:02;3.10;;;1.20;;
70253;SDS011;57649;42.968;1.608;2023-04-08T11:30:27;2.65;;;1.30;;
70253;SDS011;57649;42.968;1.608;2023-04-08T11:32:54;2.00;;;1.10;;
70253;SDS011;57649;42.968;1.608;2023-04-08T11:35:27;3.17;;;1.15;;
70253;SDS011;57649;42.968;1.608;2023-04-08T11:37:53;4.28;;;1.00;;
70253;SDS011;57649;42.968;1.608;2023-04-08T11:40:20;1.80;;;1.15;;
70253;SDS011;57649;42.968;1.608;2023-04-08T11:42:46;3.67;;;1.30;;
70253;SDS011;57649;42.968;1.608;2023-04-08T11:45:13;2.70;;;1.33;;
70253;SDS011;57649;42.968;1.608;2023-04-08T11:47:40;3.53;;;1.10;;
70253;SDS011;57649;42.968;1.608;2023-04-08T11:50:06;4.20;;;1.75;;
70253;SDS011;57649;42.968;1.608;2023-04-08T11:52:46;2.03;;;1.38;;
70253;SDS011;57649;42.968;1.608;2023-04-08T11:55:20;2.90;;;1.20;;
70253;SDS011;57649;42.968;1.608;2023-04-08T11:57:48;1.85;;;1.00;;
70253;SDS011;57649;42.968;1.608;2023-04-08T12:00:13;3.40;;;1.35;;
70253;SDS011;57649;42.968;1.608;2023-04-08T12:02:39;1.85;;;1.00;;
70253;SDS011;57649;42.968;1.608;2023-04-08T12:05:05;4.47;;;1.95;;
70253;SDS011;57649;42.968;1.608;2023-04-08T12:07:31;2.78;;;1.25;;
70253;SDS011;57649;42.968;1.608;2023-04-08T12:09:57;4.07;;;1.17;;
70253;SDS011;57649;42.968;1.608;2023-04-08T12:12:22;1.35;;;0.90;;
70253;SDS011;57649;42.968;1.608;2023-04-08T12:14:48;3.08;;;1.17;;
70253;SDS011;57649;42.968;1.608;2023-04-08T12:17:13;1.75;;;1.17;;
70253;SDS011;57649;42.968;1.608;2023-04-08T12:19:39;2.28;;;1.00;;
70253;SDS011;57649;42.968;1.608;2023-04-08T12:22:05;1.83;;;0.90;;
70253;SDS011;57649;42.968;1.608;2023-04-08T12:24:30;2.30;;;1.20;;
70253;SDS011;57649;42.968;1.608;2023-04-08T12:26:56;2.45;;;1.20;;
70253;SDS011;57649;42.968;1.608;2023-04-08T12:29:21;3.13;;;1.10;;
70253;SDS011;57649;42.968;1.608;2023-04-08T12:31:47;5.18;;;1.10;;
70253;SDS011;57649;42.968;1.608;2023-04-08T12:34:12;6.90;;;1.40;;
70253;SDS011;57649;42.968;1.608;2023-04-08T12:36:37;4.68;;;1.30;;
70253;SDS011;57649;42.968;1.608;2023-04-08T12:39:03;2.20;;;1.13;;
70253;SDS011;57649;42.968;1.608;2023-04-08T12:41:28;2.08;;;1.10;;
70253;SDS011;57649;42.968;1.608;2023-04-08T12:43:53;2.40;;;1.10;;
70253;SDS011;57649;42.968;1.608;2023-04-08T12:46:19;4.57;;;1.50;;
70253;SDS011;57649;42.968;1.608;2023-04-08T12:48:45;2.42;;;1.00;;
70253;SDS011;57649;42.968;1.608;2023-04-08T12:51:12;4.55;;;1.30;;
70253;SDS011;57649;42.968;1.608;2023-04-08T12:53:37;4.43;;;1.30;;
70253;SDS011;57649;42.968;1.608;2023-04-08T12:56:03;2.92;;;1.10;;
70253;SDS011;57649;42.968;1.608;2023-04-08T12:58:29;2.85;;;1.85;;
70253;SDS011;57649;42.968;1.608;2023-04-08T13:00:54;1.90;;;0.90;;
70253;SDS011;57649;42.968;1.608;2023-04-08T13:03:20;3.92;;;1.42;;
70253;SDS011;57649;42.968;1.608;2023-04-08T13:05:45;1.80;;;0.88;;
70253;SDS011;57649;42.968;1.608;2023-04-08T13:08:11;1.75;;;0.88;;
70253;SDS011;57649;42.968;1.608;2023-04-08T13:10:36;1.70;;;1.02;;
70253;SDS011;57649;42.968;1.608;2023-04-08T13:13:02;2.97;;;1.00;;
70253;SDS011;57649;42.968;1.608;2023-04-08T13:15:28;2.25;;;1.20;;
70253;SDS011;57649;42.968;1.608;2023-04-08T13:17:53;2.42;;;1.02;;
70253;SDS011;57649;42.968;1.608;2023-04-08T13:20:19;2.95;;;1.20;;
70253;SDS011;57649;42.968;1.608;2023-04-08T13:22:47;1.73;;;0.93;;
70253;SDS011;57649;42.968;1.608;2023-04-08T13:25:12;1.40;;;0.75;;
70253;SDS011;57649;42.968;1.608;2023-04-08T13:27:38;3.28;;;0.80;;
70253;SDS011;57649;42.968;1.608;2023-04-08T13:30:03;3.85;;;0.93;;
70253;SDS011;57649;42.968;1.608;2023-04-08T13:32:29;1.63;;;0.98;;
70253;SDS011;57649;42.968;1.608;2023-04-08T13:34:55;3.08;;;1.23;;
70253;SDS011;57649;42.968;1.608;2023-04-08T13:37:20;2.05;;;1.20;;
70253;SDS011;57649;42.968;1.608;2023-04-08T13:39:54;4.07;;;1.05;;
70253;SDS011;57649;42.968;1.608;2023-04-08T13:42:20;1.63;;;0.95;;
70253;SDS011;57649;42.968;1.608;2023-04-08T13:44:46;6.10;;;2.05;;
70253;SDS011;57649;42.968;1.608;2023-04-08T13:47:11;3.08;;;2.30;;
70253;SDS011;57649;42.968;1.608;2023-04-08T13:49:37;2.85;;;0.90;;
70253;SDS011;57649;42.968;1.608;2023-04-08T13:52:02;3.50;;;1.00;;
70253;SDS011;57649;42.968;1.608;2023-04-08T13:54:28;1.67;;;0.93;;
70253;SDS011;57649;42.968;1.608;2023-04-08T13:56:53;2.00;;;0.80;;
70253;SDS011;57649;42.968;1.608;2023-04-08T13:59:19;2.55;;;1.00;;
70253;SDS011;57649;42.968;1.608;2023-04-08T14:01:45;3.60;;;1.08;;
70253;SDS011;57649;42.968;1.608;2023-04-08T14:04:10;2.30;;;1.13;;
70253;SDS011;57649;42.968;1.608;2023-04-08T14:06:36;2.22;;;1.10;;
70253;SDS011;57649;42.968;1.608;2023-04-08T14:09:01;4.78;;;1.52;;
70253;SDS011;57649;42.968;1.608;2023-04-08T14:11:27;2.08;;;1.02;;
70253;SDS011;57649;42.968;1.608;2023-04-08T14:13:52;3.95;;;1.10;;
70253;SDS011;57649;42.968;1.608;2023-04-08T14:16:17;1.55;;;0.95;;
70253;SDS011;57649;42.968;1.608;2023-04-08T14:18:43;2.78;;;0.82;;
70253;SDS011;57649;42.968;1.608;2023-04-08T14:21:09;3.85;;;1.00;;
70253;SDS011;57649;42.968;1.608;2023-04-08T14:23:35;1.13;;;0.80;;
70253;SDS011;57649;42.968;1.608;2023-04-08T14:26:00;1.55;;;0.85;;
70253;SDS011;57649;42.968;1.608;2023-04-08T14:28:26;3.15;;;0.73;;
70253;SDS011;57649;42.968;1.608;2023-04-08T14:30:51;4.63;;;1.08;;
70253;SDS011;57649;42.968;1.608;2023-04-08T14:33:16;3.67;;;1.05;;
70253;SDS011;57649;42.968;1.608;2023-04-08T14:35:42;7.85;;;1.20;;
70253;SDS011;57649;42.968;1.608;2023-04-08T14:38:07;3.80;;;0.90;;
70253;SDS011;57649;42.968;1.608;2023-04-08T14:40:33;1.20;;;0.80;;
70253;SDS011;57649;42.968;1.608;2023-04-08T14:42:58;2.60;;;0.73;;
70253;SDS011;57649;42.968;1.608;2023-04-08T14:45:24;2.85;;;1.00;;
70253;SDS011;57649;42.968;1.608;2023-04-08T14:47:49;2.97;;;1.00;;
70253;SDS011;57649;42.968;1.608;2023-04-08T14:50:15;3.88;;;0.70;;
70253;SDS011;57649;42.968;1.608;2023-04-08T14:52:40;4.05;;;0.82;;
70253;SDS011;57649;42.968;1.608;2023-04-08T14:55:06;2.58;;;1.15;;
70253;SDS011;57649;42.968;1.608;2023-04-08T14:57:32;1.48;;;0.80;;
70253;SDS011;57649;42.968;1.608;2023-04-08T14:59:57;1.80;;;0.80;;